createdAt,value
2018-10-21T00:01:21.306Z,101084.27
2018-10-21T00:03:48.920Z,101094.95
2018-10-21T00:06:16.593Z,101095.52
2018-10-21T00:08:44.363Z,101095.97
2018-10-21T00:11:12.089Z,101093.17
2018-10-21T00:13:39.877Z,101085.20
2018-10-21T00:16:07.596Z,101088.63
2018-10-21T00:18:35.273Z,101093.93
2018-10-21T00:21:03.066Z,101092.33
2018-10-21T00:23:30.673Z,101084.95
2018-10-21T00:25:58.415Z,101089.44
2018-10-21T00:28:26.117Z,101090.38
2018-10-21T00:30:53.807Z,101092.24
2018-10-21T00:33:21.524Z,101094.02
2018-10-21T00:35:49.179Z,101083.77
2018-10-21T00:38:16.797Z,101083.19
2018-10-21T00:40:44.454Z,101084.95
2018-10-21T00:43:12.113Z,101081.56
2018-10-21T00:45:39.753Z,101089.62
2018-10-21T00:48:07.451Z,101085.05
2018-10-21T00:50:35.106Z,101084.42
2018-10-21T00:53:02.798Z,101079.95
2018-10-21T00:55:30.497Z,101083.56
2018-10-21T00:57:58.122Z,101077.63
2018-10-21T01:00:25.762Z,101078.11
2018-10-21T01:02:53.574Z,101074.00
2018-10-21T01:05:21.199Z,101069.91
2018-10-21T01:07:48.886Z,101071.52
2018-10-21T01:10:16.550Z,101070.69
2018-10-21T01:12:44.316Z,101068.53
2018-10-21T01:15:12.631Z,101071.08
2018-10-21T01:17:40.271Z,101071.39
2018-10-21T01:20:10.351Z,101067.10
2018-10-21T01:22:38.239Z,101068.97
2018-10-21T01:25:06.486Z,101065.03
2018-10-21T01:27:34.206Z,101076.01
2018-10-21T01:30:02.081Z,101069.05
2018-10-21T01:32:29.784Z,101078.81
2018-10-21T01:34:57.434Z,101069.98
2018-10-21T01:37:25.183Z,101071.55
2018-10-21T01:40:58.407Z,101081.05
2018-10-21T01:43:29.020Z,101080.61
2018-10-21T01:45:57.074Z,101076.20
2018-10-21T01:48:25.929Z,101072.62
2018-10-21T01:50:53.558Z,101071.84
2018-10-21T01:53:21.722Z,101083.97
2018-10-21T01:55:49.333Z,101075.99
2018-10-21T01:58:17.005Z,101067.18
2018-10-21T02:00:44.895Z,101070.28
2018-10-21T02:03:12.731Z,101066.05
2018-10-21T02:05:41.258Z,101067.10
2018-10-21T02:08:08.932Z,101070.37
2018-10-21T02:10:36.582Z,101064.27
2018-10-21T02:13:04.339Z,101059.85
2018-10-21T02:15:32.007Z,101057.52
2018-10-21T02:17:59.683Z,101058.29
2018-10-21T02:20:27.568Z,101065.41
2018-10-21T02:22:55.225Z,101057.98
2018-10-21T02:25:22.956Z,101042.69
2018-10-21T02:27:51.342Z,101062.57
2018-10-21T02:30:21.190Z,101051.58
2018-10-21T02:32:49.672Z,101059.45
2018-10-21T02:35:17.915Z,101062.31
2018-10-21T02:37:45.918Z,101061.94
2018-10-21T02:41:39.890Z,100974.14
2018-10-21T02:44:11.977Z,101068.03
2018-10-21T02:46:40.238Z,101071.89
2018-10-21T02:49:08.911Z,101061.47
2018-10-21T02:51:36.501Z,101066.63
2018-10-21T02:54:04.977Z,101064.47
2018-10-21T02:56:32.726Z,101062.98
2018-10-21T02:59:00.477Z,101054.26
2018-10-21T03:01:28.136Z,101060.53
2018-10-21T03:03:55.761Z,101055.47
2018-10-21T03:06:23.465Z,101051.73
2018-10-21T03:08:51.177Z,101047.75
2018-10-21T03:11:18.869Z,101052.55
2018-10-21T03:13:46.933Z,101059.54
2018-10-21T03:16:14.647Z,101060.22
2018-10-21T03:18:42.389Z,101057.78
2018-10-21T03:21:10.168Z,101059.39
2018-10-21T03:23:37.919Z,101064.81
2018-10-21T03:26:05.585Z,101060.57
2018-10-21T03:28:33.717Z,101071.39
2018-10-21T03:31:01.528Z,101067.83
2018-10-21T03:33:35.963Z,101065.80
2018-10-21T03:36:03.607Z,101068.31
2018-10-21T03:38:31.298Z,101069.62
2018-10-21T03:40:58.922Z,101072.83
2018-10-21T03:43:26.545Z,101066.34
2018-10-21T03:45:54.343Z,101072.08
2018-10-21T03:48:21.919Z,101078.92
2018-10-21T03:50:49.583Z,101066.27
2018-10-21T03:53:17.270Z,101064.73
2018-10-21T03:55:44.927Z,101068.61
2018-10-21T03:58:12.948Z,101069.72
2018-10-21T04:00:40.589Z,101078.82
2018-10-21T04:03:08.601Z,101071.40
2018-10-21T04:05:36.561Z,101070.73
2018-10-21T04:08:04.335Z,101070.73
2018-10-21T04:10:32.312Z,101076.38
2018-10-21T04:13:00.193Z,101076.66
2018-10-21T04:15:27.903Z,101074.50
2018-10-21T04:17:55.796Z,101077.53
2018-10-21T04:20:23.574Z,101074.88
2018-10-21T04:22:56.257Z,101075.97
2018-10-21T04:25:24.965Z,101073.06
2018-10-21T04:27:53.638Z,101079.55
2018-10-21T04:30:25.846Z,101080.86
2018-10-21T04:32:59.139Z,101078.35
2018-10-21T04:35:27.042Z,101051.61
2018-10-21T04:40:17.740Z,101075.54
2018-10-21T04:42:45.962Z,101080.48
2018-10-21T04:45:15.922Z,101079.19
2018-10-21T04:47:43.560Z,101083.06
2018-10-21T04:50:11.752Z,101089.91
2018-10-21T04:52:39.473Z,101084.56
2018-10-21T04:55:10.411Z,101086.81
2018-10-21T04:57:40.119Z,101093.38
2018-10-21T05:00:13.966Z,101093.47
2018-10-21T05:02:41.709Z,101096.73
2018-10-21T05:05:10.572Z,101095.89
2018-10-21T05:07:38.668Z,101098.52
2018-10-21T05:10:31.984Z,101103.22
2018-10-21T05:12:59.709Z,101105.97
2018-10-21T05:15:28.625Z,101106.41
2018-10-21T05:17:56.463Z,101100.33
2018-10-21T05:20:24.253Z,101103.33
2018-10-21T05:22:51.939Z,101104.16
2018-10-21T05:25:19.629Z,101110.91
2018-10-21T05:27:47.291Z,101115.69
2018-10-21T05:32:49.118Z,101109.98
2018-10-21T05:35:17.730Z,101110.32
2018-10-21T05:37:45.432Z,101112.36
2018-10-21T05:40:15.953Z,101106.83
2018-10-21T05:42:44.029Z,101116.35
2018-10-21T05:45:11.747Z,101105.66
2018-10-21T05:47:39.736Z,101110.94
2018-10-21T05:50:08.992Z,101120.59
2018-10-21T05:52:37.029Z,101120.48
2018-10-21T05:55:05.313Z,101116.19
2018-10-21T05:57:33.031Z,101120.59
2018-10-21T06:00:00.640Z,101126.62
2018-10-21T06:02:28.353Z,101130.98
2018-10-21T06:04:55.991Z,101122.98
2018-10-21T06:07:23.828Z,101123.34
2018-10-21T06:09:51.963Z,101125.69
2018-10-21T06:12:19.596Z,101137.56
2018-10-21T06:14:48.480Z,101136.48
2018-10-21T06:17:21.369Z,101138.66
2018-10-21T06:19:54.972Z,101146.59
2018-10-21T06:22:22.627Z,101148.39
2018-10-21T06:24:50.239Z,101154.55
2018-10-21T06:27:17.994Z,101157.84
2018-10-21T06:29:45.615Z,101158.46
2018-10-21T06:32:13.287Z,101163.28
2018-10-21T06:34:40.952Z,101166.48
2018-10-21T06:37:08.554Z,101165.75
2018-10-21T06:39:36.196Z,101174.72
2018-10-21T06:42:04.049Z,101174.26
2018-10-21T06:44:31.897Z,101187.58
2018-10-21T06:46:59.508Z,101182.40
2018-10-21T06:49:27.122Z,101175.60
2018-10-21T06:51:54.792Z,101176.70
2018-10-21T06:54:22.414Z,101183.94
2018-10-21T06:56:50.340Z,101182.06
2018-10-21T06:59:17.995Z,101183.48
2018-10-21T07:01:45.730Z,101183.09
2018-10-21T07:04:13.474Z,101183.22
2018-10-21T07:06:41.206Z,101189.30
2018-10-21T07:09:08.827Z,101193.54
2018-10-21T07:11:36.695Z,101191.83
2018-10-21T07:14:04.369Z,101189.68
2018-10-21T07:16:32.170Z,101199.05
2018-10-21T07:18:59.722Z,101201.22
2018-10-21T07:21:27.377Z,101191.17
2018-10-21T07:23:54.994Z,101204.13
2018-10-21T07:26:22.671Z,101203.98
2018-10-21T07:28:50.365Z,101203.19
2018-10-21T07:31:18.011Z,101202.43
2018-10-21T07:33:45.729Z,101198.41
2018-10-21T07:36:13.478Z,101208.73
2018-10-21T07:38:41.092Z,101204.53
2018-10-21T07:41:08.819Z,101211.53
2018-10-21T07:43:36.505Z,101210.98
2018-10-21T07:46:04.328Z,101208.91
2018-10-21T07:48:32.025Z,101216.70
2018-10-21T07:50:59.759Z,101215.04
2018-10-21T07:53:27.411Z,101218.43
2018-10-21T07:55:55.143Z,101212.95
2018-10-21T07:58:22.860Z,101206.98
2018-10-21T08:00:50.629Z,101212.16
2018-10-21T08:03:18.332Z,101217.38
2018-10-21T08:06:17.427Z,101218.66
2018-10-21T08:08:45.149Z,101216.16
2018-10-21T08:11:12.793Z,101215.94
2018-10-21T08:13:40.379Z,101219.63
2018-10-21T08:16:08.270Z,101212.55
2018-10-21T08:21:03.248Z,101214.96
2018-10-21T08:23:31.035Z,101216.34
2018-10-21T08:25:58.704Z,101222.70
2018-10-21T08:28:26.338Z,101221.27
2018-10-21T08:30:54.514Z,101222.70
2018-10-21T08:33:22.522Z,101231.66
2018-10-21T08:35:50.543Z,101223.60
2018-10-21T08:38:18.210Z,101218.98
2018-10-21T08:40:46.035Z,101227.13
2018-10-21T08:43:13.756Z,101226.25
2018-10-21T08:45:41.528Z,101229.69
2018-10-21T08:48:09.266Z,101230.45
2018-10-21T08:50:36.934Z,101223.66
2018-10-21T08:53:04.689Z,101236.07
2018-10-21T08:55:32.467Z,101229.20
2018-10-21T08:58:00.202Z,101225.59
2018-10-21T09:00:27.843Z,101227.12
2018-10-21T09:02:55.492Z,101234.19
2018-10-21T09:05:23.284Z,101229.80
2018-10-21T09:07:51.599Z,101225.07
2018-10-21T09:10:19.550Z,101218.70
2018-10-21T09:12:47.285Z,101224.39
2018-10-21T09:15:17.341Z,101222.74
2018-10-21T09:17:44.973Z,101225.50
2018-10-21T09:20:15.667Z,101228.93
2018-10-21T09:22:43.452Z,101235.07
2018-10-21T09:25:12.980Z,101226.76
2018-10-21T09:27:41.640Z,101220.88
2018-10-21T09:30:11.534Z,101222.92
2018-10-21T09:32:39.456Z,101224.12
2018-10-21T09:35:09.667Z,101222.09
2018-10-21T09:37:37.543Z,101225.95
2018-10-21T09:40:07.472Z,101234.59
2018-10-21T09:42:35.095Z,101235.52
2018-10-21T09:45:02.839Z,101233.11
2018-10-21T09:47:30.601Z,101225.64
2018-10-21T09:49:58.385Z,101228.36
2018-10-21T09:52:26.021Z,101223.73
2018-10-21T09:54:53.855Z,101226.75
2018-10-21T09:57:21.609Z,101227.25
2018-10-21T09:59:49.405Z,101228.56
2018-10-21T10:02:23.044Z,101223.36
2018-10-21T10:04:50.817Z,101227.45
2018-10-21T10:07:18.542Z,101225.41
2018-10-21T10:09:46.311Z,101223.24
2018-10-21T10:12:14.349Z,101219.23
2018-10-21T10:14:42.121Z,101219.12
2018-10-21T10:17:09.950Z,101224.34
2018-10-21T10:19:37.953Z,101220.98
2018-10-21T10:22:05.756Z,101224.13
2018-10-21T10:24:33.511Z,101222.30
2018-10-21T10:27:01.304Z,101215.59
2018-10-21T10:29:29.041Z,101206.78
2018-10-21T10:31:56.768Z,101207.95
2018-10-21T10:34:24.489Z,101202.16
2018-10-21T10:36:52.229Z,101193.91
2018-10-21T10:39:20.032Z,101194.27
2018-10-21T10:41:47.898Z,101191.63
2018-10-21T10:44:15.562Z,101192.00
2018-10-21T10:46:43.240Z,101197.05
2018-10-21T10:49:10.933Z,101190.06
2018-10-21T10:51:38.686Z,101192.45
2018-10-21T10:54:06.385Z,101198.69
2018-10-21T10:56:34.155Z,101179.14
2018-10-21T10:59:01.865Z,101185.39
2018-10-21T11:01:29.728Z,101186.16
2018-10-21T11:03:57.660Z,101183.23
2018-10-21T11:06:25.503Z,101181.23
2018-10-21T11:08:53.133Z,101187.56
2018-10-21T11:11:24.644Z,101185.51
2018-10-21T11:13:52.358Z,101177.69
2018-10-21T11:16:20.116Z,101183.25
2018-10-21T11:18:47.876Z,101184.19
2018-10-21T11:21:15.834Z,101185.03
2018-10-21T11:23:43.656Z,101175.61
2018-10-21T11:26:11.464Z,101175.23
2018-10-21T11:28:39.284Z,101167.81
2018-10-21T11:31:07.079Z,101159.67
2018-10-21T11:33:34.745Z,101153.25
2018-10-21T11:36:02.548Z,101155.56
2018-10-21T11:38:30.299Z,101151.45
2018-10-21T11:40:58.085Z,101147.91
2018-10-21T11:43:25.923Z,101148.05
2018-10-21T11:45:53.687Z,101151.16
2018-10-21T11:48:21.368Z,101146.84
2018-10-21T11:50:49.078Z,101145.22
2018-10-21T11:53:16.817Z,101146.42
2018-10-21T11:55:45.068Z,101148.47
2018-10-21T11:58:14.219Z,101147.62
2018-10-21T12:00:42.970Z,101144.97
2018-10-21T12:03:11.297Z,101144.27
2018-10-21T12:05:40.192Z,101139.53
2018-10-21T12:08:08.219Z,101139.99
2018-10-21T12:10:36.062Z,101140.66
2018-10-21T12:13:04.464Z,101145.21
2018-10-21T12:15:32.382Z,101138.77
2018-10-21T12:18:00.083Z,101150.35
2018-10-21T12:20:27.786Z,101148.64
2018-10-21T12:22:55.702Z,101148.16
2018-10-21T12:25:23.447Z,101142.66
2018-10-21T12:27:51.127Z,101146.97
2018-10-21T12:30:18.932Z,101138.30
2018-10-21T12:32:46.574Z,101142.05
2018-10-21T12:35:14.361Z,101138.82
2018-10-21T12:37:42.047Z,101135.19
2018-10-21T12:40:10.210Z,101116.33
2018-10-21T12:42:38.284Z,101120.12
2018-10-21T12:45:08.404Z,101114.48
2018-10-21T12:47:36.295Z,101115.22
2018-10-21T12:50:04.289Z,101109.70
2018-10-21T12:52:32.077Z,101111.16
2018-10-21T12:54:59.859Z,101111.89
2018-10-21T12:57:27.551Z,101109.94
2018-10-21T12:59:55.251Z,101110.72
2018-10-21T13:02:23.619Z,101103.86
2018-10-21T13:04:51.315Z,101107.19
2018-10-21T13:07:19.052Z,101105.06
2018-10-21T13:09:46.819Z,101102.88
2018-10-21T13:12:14.549Z,101099.51
2018-10-21T13:14:42.173Z,101098.88
2018-10-21T13:17:09.863Z,101090.13
2018-10-21T13:19:38.233Z,101082.86
2018-10-21T13:22:06.136Z,101086.76
2018-10-21T13:24:33.931Z,101083.09
2018-10-21T13:27:01.701Z,101082.09
2018-10-21T13:29:29.563Z,101083.55
2018-10-21T13:31:57.248Z,101078.33
2018-10-21T13:34:24.975Z,101082.14
2018-10-21T13:36:52.669Z,101077.02
2018-10-21T13:39:20.389Z,101077.63
2018-10-21T13:41:48.243Z,101074.30
2018-10-21T13:44:15.968Z,101072.58
2018-10-21T13:46:43.814Z,101077.35
2018-10-21T13:49:11.510Z,101074.19
2018-10-21T13:51:39.293Z,101074.77
2018-10-21T13:54:06.930Z,101069.48
2018-10-21T13:56:34.687Z,101076.25
2018-10-21T13:59:02.369Z,101079.94
2018-10-21T14:01:30.094Z,101074.17
2018-10-21T14:03:57.775Z,101078.71
2018-10-21T14:06:25.479Z,101075.23
2018-10-21T14:08:53.210Z,101077.61
2018-10-21T14:11:21.086Z,101070.17
2018-10-21T14:13:48.927Z,101069.12
2018-10-21T14:16:16.716Z,101061.83
2018-10-21T14:18:44.543Z,101065.45
2018-10-21T14:21:12.224Z,101064.83
2018-10-21T14:23:39.941Z,101066.84
2018-10-21T14:26:07.622Z,101067.83
2018-10-21T14:28:35.409Z,101060.59
2018-10-21T14:31:03.399Z,101057.89
2018-10-21T14:33:31.348Z,101063.33
2018-10-21T14:35:59.027Z,101057.88
2018-10-21T14:38:26.812Z,101057.87
2018-10-21T14:40:54.544Z,101053.66
2018-10-21T14:43:22.488Z,101050.58
2018-10-21T14:45:50.326Z,101048.50
2018-10-21T14:48:18.136Z,101054.96
2018-10-21T14:50:45.790Z,101042.80
2018-10-21T14:53:13.673Z,101040.13
2018-10-21T14:55:41.595Z,101048.91
2018-10-21T14:58:09.530Z,101042.69
2018-10-21T15:00:37.630Z,101032.22
2018-10-21T15:03:06.673Z,101036.94
2018-10-21T15:05:34.377Z,101038.75
2018-10-21T15:08:02.457Z,101043.53
2018-10-21T15:10:30.125Z,101037.05
2018-10-21T15:12:57.845Z,101043.25
2018-10-21T15:15:25.807Z,101048.31
2018-10-21T15:17:53.533Z,101041.11
2018-10-21T15:20:21.236Z,101038.36
2018-10-21T15:22:49.037Z,101042.41
2018-10-21T15:25:16.716Z,101040.00
2018-10-21T15:27:44.547Z,101037.53
2018-10-21T15:30:12.572Z,101035.23
2018-10-21T15:32:40.623Z,101040.58
2018-10-21T15:35:08.741Z,101028.08
2018-10-21T15:37:36.427Z,101038.92
2018-10-21T15:40:06.026Z,101036.13
2018-10-21T15:42:33.780Z,101034.45
2018-10-21T15:45:01.564Z,101038.70
2018-10-21T15:47:29.305Z,101037.97
2018-10-21T15:49:57.113Z,101039.72
2018-10-21T15:52:24.861Z,100979.19
2018-10-21T15:54:52.719Z,101038.89
2018-10-21T15:57:20.454Z,101038.58
2018-10-21T15:59:48.227Z,101033.59
2018-10-21T16:02:16.175Z,101037.27
2018-10-21T16:04:43.861Z,101032.65
2018-10-21T16:07:11.531Z,101029.07
2018-10-21T16:09:39.184Z,101027.37
2018-10-21T16:12:06.939Z,101031.13
2018-10-21T16:14:34.620Z,101031.75
2018-10-21T16:17:02.340Z,101033.80
2018-10-21T16:19:30.163Z,101042.45
2018-10-21T16:21:57.952Z,101040.58
2018-10-21T16:24:25.676Z,101044.13
2018-10-21T16:26:53.486Z,101038.42
2018-10-21T16:29:21.235Z,101040.17
2018-10-21T16:31:49.315Z,101033.98
2018-10-21T16:34:17.081Z,101040.31
2018-10-21T16:36:44.728Z,101042.58
2018-10-21T16:39:12.433Z,101039.52
2018-10-21T16:41:40.184Z,101039.66
2018-10-21T16:44:07.920Z,101041.75
2018-10-21T16:46:35.663Z,101047.86
2018-10-21T16:49:03.434Z,101047.69
2018-10-21T16:51:31.216Z,101045.91
2018-10-21T16:53:58.972Z,101048.98
2018-10-21T16:56:26.757Z,101041.77
2018-10-21T16:58:54.489Z,101045.05
2018-10-21T17:01:22.225Z,101043.94
2018-10-21T17:03:50.045Z,101047.19
2018-10-21T17:06:17.741Z,101044.69
2018-10-21T17:08:45.545Z,101045.70
2018-10-21T17:11:13.547Z,101046.35
2018-10-21T17:13:41.335Z,101047.77
2018-10-21T17:16:09.132Z,101042.48
2018-10-21T17:18:36.859Z,101049.35
2018-10-21T17:21:04.948Z,101050.42
2018-10-21T17:23:32.753Z,101049.00
2018-10-21T17:26:02.274Z,101060.04
2018-10-21T17:28:30.004Z,101054.27
2018-10-21T17:30:57.868Z,101051.98
2018-10-21T17:33:25.530Z,101050.30
2018-10-21T17:35:53.257Z,101045.39
2018-10-21T17:38:20.982Z,101045.09
2018-10-21T17:40:48.662Z,101045.55
2018-10-21T17:43:16.422Z,101044.45
2018-10-21T17:45:44.169Z,101051.08
2018-10-21T17:48:11.877Z,101046.12
2018-10-21T17:50:39.659Z,101046.77
2018-10-21T17:53:07.357Z,101046.45
2018-10-21T17:55:35.061Z,101050.45
2018-10-21T17:58:02.879Z,101062.26
2018-10-21T18:00:30.787Z,101055.78
2018-10-21T18:02:58.658Z,101059.72
2018-10-21T18:05:26.375Z,101048.19
2018-10-21T18:07:54.210Z,101059.12
2018-10-21T18:10:21.976Z,101057.02
2018-10-21T18:12:49.654Z,101056.03
2018-10-21T18:15:17.397Z,101056.11
2018-10-21T18:17:45.152Z,101060.29
2018-10-21T18:20:13.407Z,101057.20
2018-10-21T18:22:41.564Z,101060.90
2018-10-21T18:25:09.796Z,101057.86
2018-10-21T18:27:37.825Z,101059.52
2018-10-21T18:30:07.299Z,101059.12
2018-10-21T18:32:35.212Z,101052.12
2018-10-21T18:35:03.392Z,101059.17
2018-10-21T18:37:31.276Z,101055.81
2018-10-21T18:39:58.994Z,101054.75
2018-10-21T18:42:26.808Z,101054.94
2018-10-21T18:44:54.556Z,101051.86
2018-10-21T18:47:22.491Z,101051.16
2018-10-21T18:49:50.683Z,101054.16
2018-10-21T18:52:18.579Z,101046.02
2018-10-21T18:54:46.276Z,101050.19
2018-10-21T18:57:14.144Z,101053.58
2018-10-21T18:59:42.063Z,101054.96
2018-10-21T19:02:10.421Z,101057.64
2018-10-21T19:04:38.407Z,101060.64
2018-10-21T19:07:06.948Z,101058.97
2018-10-21T19:09:34.857Z,101060.59
2018-10-21T19:12:02.882Z,101061.95
2018-10-21T19:14:31.766Z,101060.48
2018-10-21T19:16:59.722Z,101057.28
2018-10-21T19:19:27.672Z,101064.52
2018-10-21T19:21:55.732Z,101069.27
2018-10-21T19:24:23.570Z,101063.56
2018-10-21T19:26:51.472Z,101061.56
2018-10-21T19:29:19.416Z,101057.94
2018-10-21T19:31:47.318Z,101058.63
2018-10-21T19:34:15.138Z,101055.56
2018-10-21T19:36:43.884Z,101054.72
2018-10-21T19:39:12.766Z,101059.45
2018-10-21T19:41:40.800Z,101064.55
2018-10-21T19:44:10.592Z,101058.84
2018-10-21T19:46:38.826Z,101061.66
2018-10-21T19:49:07.399Z,101064.89
2018-10-21T19:51:35.352Z,101061.03
2018-10-21T19:54:03.166Z,101059.73
2018-10-21T19:56:31.822Z,101059.07
2018-10-21T19:59:01.309Z,101064.98
2018-10-21T20:01:29.096Z,101065.27
2018-10-21T20:03:56.976Z,101061.97
2018-10-21T20:06:24.773Z,101065.61
2018-10-21T20:08:52.590Z,101065.14
2018-10-21T20:11:20.438Z,101061.92
2018-10-21T20:13:48.234Z,101064.98
2018-10-21T20:16:16.333Z,101064.08
2018-10-21T20:18:44.143Z,101063.29
2018-10-21T20:21:11.872Z,101075.48
2018-10-21T20:23:39.602Z,101070.92
2018-10-21T20:26:07.452Z,101069.35
2018-10-21T20:28:35.520Z,101069.91
2018-10-21T20:31:03.475Z,101067.69
2018-10-21T20:33:31.369Z,101070.06
2018-10-21T20:35:59.286Z,101065.66
2018-10-21T20:38:27.326Z,101066.96
2018-10-21T20:40:55.062Z,101058.95
2018-10-21T20:43:23.646Z,101065.17
2018-10-21T20:45:51.640Z,101062.74
2018-10-21T20:48:19.269Z,101058.59
2018-10-21T20:50:47.012Z,101060.02
2018-10-21T20:53:14.784Z,101058.34
2018-10-21T20:55:42.646Z,101052.72
2018-10-21T20:58:10.316Z,101067.47
2018-10-21T21:00:38.095Z,101062.89
2018-10-21T21:03:05.980Z,101054.61
2018-10-21T21:05:33.658Z,101061.25
2018-10-21T21:08:01.554Z,101059.64
2018-10-21T21:10:29.323Z,101055.39
2018-10-21T21:12:57.112Z,101054.50
2018-10-21T21:15:24.770Z,101056.11
2018-10-21T21:17:52.489Z,101049.86
2018-10-21T21:20:20.205Z,101052.47
2018-10-21T21:22:48.002Z,101053.33
2018-10-21T21:25:15.665Z,101048.95
2018-10-21T21:27:43.412Z,101051.05
2018-10-21T21:30:11.158Z,101049.22
2018-10-21T21:32:38.869Z,101048.17
2018-10-21T21:35:07.271Z,101051.17
2018-10-21T21:37:35.018Z,101058.48
2018-10-21T21:40:02.850Z,101052.28
2018-10-21T21:42:30.593Z,101055.20
2018-10-21T21:44:58.251Z,101045.23
2018-10-21T21:47:25.959Z,101047.00
2018-10-21T21:49:53.803Z,101049.27
2018-10-21T21:52:21.480Z,101048.16
2018-10-21T21:54:49.300Z,101043.15
2018-10-21T21:57:16.988Z,101038.53
2018-10-21T21:59:44.655Z,101035.12
2018-10-21T22:02:12.326Z,101041.39
2018-10-21T22:04:39.975Z,101034.34
2018-10-21T22:07:07.752Z,101028.67
2018-10-21T22:09:35.432Z,101027.06
2018-10-21T22:12:03.203Z,101023.71
2018-10-21T22:14:30.926Z,101025.72
2018-10-21T22:16:58.541Z,101022.27
2018-10-21T22:19:26.216Z,101029.72
2018-10-21T22:21:53.958Z,101025.16
2018-10-21T22:24:21.669Z,101002.27
2018-10-21T22:26:49.364Z,101014.79
2018-10-21T22:29:17.141Z,101009.98
2018-10-21T22:31:44.863Z,101005.87
2018-10-21T22:34:12.666Z,101012.89
2018-10-21T22:36:40.284Z,101006.32
2018-10-21T22:39:07.978Z,101005.55
2018-10-21T22:41:35.772Z,101009.97
2018-10-21T22:44:03.615Z,101006.12
2018-10-21T22:46:31.280Z,101006.41
2018-10-21T22:48:58.927Z,101008.27
2018-10-21T22:51:26.594Z,101000.28
2018-10-21T22:53:54.467Z,101008.27
2018-10-21T22:56:22.158Z,101012.27
2018-10-21T22:58:49.968Z,100999.75
2018-10-21T23:01:17.616Z,101003.52
2018-10-21T23:03:45.262Z,101003.60
2018-10-21T23:06:12.930Z,101003.91
2018-10-21T23:08:40.518Z,101002.20
2018-10-21T23:11:08.209Z,101001.76
2018-10-21T23:13:35.899Z,101004.77
2018-10-21T23:16:04.156Z,101000.71
2018-10-21T23:18:31.904Z,101001.73
2018-10-21T23:20:59.774Z,101005.12
2018-10-21T23:23:27.510Z,101001.53
2018-10-21T23:25:55.173Z,100998.72
2018-10-21T23:28:22.807Z,101000.53
2018-10-21T23:30:50.578Z,101005.12
2018-10-21T23:33:18.269Z,101005.38
2018-10-21T23:35:45.979Z,100999.67
2018-10-21T23:38:13.642Z,100999.47
2018-10-21T23:40:41.356Z,100995.65
2018-10-21T23:43:09.001Z,100994.14
2018-10-21T23:45:36.585Z,100992.75
2018-10-21T23:48:04.482Z,100995.36
2018-10-21T23:50:32.146Z,100990.34
2018-10-21T23:52:59.783Z,100989.69
2018-10-21T23:55:27.519Z,100988.44
2018-10-21T23:57:55.185Z,100990.27
